Date,TemperatureHighF,TemperatureAvgF,TemperatureLowF,DewpointHighF,DewpointAvgF,DewpointLowF,HumidityHigh,HumidityAvg,HumidityLow,PressureMaxIn,PressureMinIn,WindSpeedMaxMPH,WindSpeedAvgMPH,GustSpeedMaxMPH,PrecipitationSumIn
2013-4-1,38.6,28.9,18.7,24.7,18.5,13.0,87,67,45,29.75,29.65,10,1,10,0.00
2013-4-2,36.2,25.0,7.1,15.3,10.5,-0.0,76,55,40,29.82,29.69,13,1,13,0.00
2013-4-3,31.3,24.0,17.2,7.8,1.8,-6.2,54,39,25,30.09,29.81,24,5,24,0.00
2013-4-4,30.4,20.4,11.7,-5.3,-7.0,-9.5,39,30,19,30.11,29.71,19,6,21,0.00
2013-4-5,18.4,13.4,5.6,-4.7,-11.4,-15.6,40,32,25,29.71,29.35,20,6,20,0.00
2013-4-6,20.6,10.2,1.4,-5.3,-12.9,-17.3,41,34,26,29.35,29.20,14,4,14,0.00
2013-4-7,8.3,5.2,-1.7,0.1,-5.7,-13.9,70,60,37,29.53,29.25,8,1,9,0.00
2013-4-8,12.2,0.9,-19.7,3.2,-8.6,-31.6,72,64,53,29.55,29.09,7,1,7,0.00
2013-4-9,11.6,9.0,6.8,3.9,1.3,-1.7,73,70,60,29.09,28.76,11,1,11,0.00
2013-4-10,14.1,7.0,-10.5,-1.0,-8.4,-22.9,65,49,34,29.58,29.07,10,2,11,0.00
2013-4-11,15.1,-1.7,-24.2,-5.8,-17.9,-37.1,61,46,35,29.86,29.58,8,1,8,0.00
2013-4-12,23.6,4.1,-19.4,-0.1,-13.0,-31.4,61,45,34,29.96,29.86,6,1,10,0.03
2013-4-13,26.2,7.5,-17.2,-2.5,-11.5,-29.2,62,43,26,30.10,29.96,4,1,8,0.02
2013-4-14,29.8,15.8,-4.1,12.8,0.5,-15.8,59,51,36,30.19,30.10,4,1,10,0.02
2013-4-15,32.0,23.8,9.5,11.2,3.4,0.4,70,43,27,30.15,30.06,11,3,18,0.00
2013-4-16,29.3,21.1,4.0,10.5,2.6,-7.5,59,45,34,30.06,29.86,5,1,12,0.00
2013-4-17,30.8,20.7,-0.4,5.5,1.6,-9.7,69,45,32,29.99,29.87,14,2,16,0.00
2013-4-18,32.1,22.5,1.5,5.4,0.8,-9.2,60,39,28,30.04,29.99,11,3,18,0.00
2013-4-19,42.0,24.4,1.5,9.0,1.9,-8.7,64,40,24,30.10,30.02,5,1,13,0.00
2013-4-20,43.8,26.9,5.1,12.4,5.0,-4.4,66,42,23,30.03,29.90,5,1,8,0.00
2013-4-21,45.0,29.0,6.7,14.2,8.0,-0.7,73,45,23,29.99,29.93,4,1,7,0.00
2013-4-22,48.1,28.5,7.7,15.0,9.3,1.0,75,49,21,30.10,29.99,3,0,8,0.00
2013-4-23,48.4,33.4,13.3,17.4,13.4,7.4,78,48,26,30.02,29.81,7,2,13,0.00
2013-4-24,38.8,34.0,29.8,30.3,25.1,14.8,92,72,38,29.81,29.60,7,3,18,0.07
2013-4-25,33.4,26.8,17.5,22.6,2.7,-5.6,77,36,24,29.72,29.61,10,3,12,0.00
2013-4-26,31.8,21.2,4.5,20.6,7.7,-2.8,81,57,36,29.64,29.23,4,1,9,0.00
2013-4-27,28.7,23.7,13.1,17.9,2.0,-9.7,83,44,21,29.77,29.28,14,4,20,0.00
2013-4-28,36.5,19.2,-2.7,13.2,-1.4,-12.5,63,42,26,29.81,29.71,4,0,11,0.00
2013-4-29,32.0,27.9,18.9,26.4,18.8,9.3,88,69,49,29.76,29.70,8,2,13,0.00
2013-4-30,37.7,31.2,27.2,26.6,24.5,18.3,90,77,52,29.70,29.49,5,1,13,0.13